sensor_id;sensor_type;location;lat;lon;timestamp;P1;durP1;ratioP1;P2;durP2;ratioP2
49051;SDS011;34866;48.670;18.260;2022-12-29T00:02:21;25.75;;;15.52;;
49051;SDS011;34866;48.670;18.260;2022-12-29T00:04:48;21.65;;;12.05;;
49051;SDS011;34866;48.670;18.260;2022-12-29T00:07:14;35.95;;;13.88;;
49051;SDS011;34866;48.670;18.260;2022-12-29T00:09:41;29.05;;;15.38;;
49051;SDS011;34866;48.670;18.260;2022-12-29T00:12:07;27.20;;;14.60;;
49051;SDS011;34866;48.670;18.260;2022-12-29T00:14:34;33.97;;;16.08;;
49051;SDS011;34866;48.670;18.260;2022-12-29T00:17:21;22.70;;;14.00;;
49051;SDS011;34866;48.670;18.260;2022-12-29T00:19:46;45.30;;;16.67;;
49051;SDS011;34866;48.670;18.260;2022-12-29T00:22:31;26.10;;;14.02;;
49051;SDS011;34866;48.670;18.260;2022-12-29T00:25:16;31.95;;;15.63;;
49051;SDS011;34866;48.670;18.260;2022-12-29T00:28:00;27.95;;;16.20;;
49051;SDS011;34866;48.670;18.260;2022-12-29T00:30:44;29.23;;;15.90;;
49051;SDS011;34866;48.670;18.260;2022-12-29T00:33:29;25.27;;;15.60;;
49051;SDS011;34866;48.670;18.260;2022-12-29T00:36:19;34.78;;;15.85;;
49051;SDS011;34866;48.670;18.260;2022-12-29T00:38:58;42.13;;;15.48;;
49051;SDS011;34866;48.670;18.260;2022-12-29T00:41:45;30.70;;;14.73;;
49051;SDS011;34866;48.670;18.260;2022-12-29T00:44:30;24.70;;;12.50;;
49051;SDS011;34866;48.670;18.260;2022-12-29T00:46:57;30.27;;;14.45;;
49051;SDS011;34866;48.670;18.260;2022-12-29T00:49:27;21.20;;;11.45;;
49051;SDS011;34866;48.670;18.260;2022-12-29T00:51:56;20.48;;;11.93;;
49051;SDS011;34866;48.670;18.260;2022-12-29T00:54:25;26.88;;;13.52;;
49051;SDS011;34866;48.670;18.260;2022-12-29T00:56:52;25.40;;;14.70;;
49051;SDS011;34866;48.670;18.260;2022-12-29T00:59:18;35.88;;;14.27;;
49051;SDS011;34866;48.670;18.260;2022-12-29T01:01:45;25.92;;;13.40;;
49051;SDS011;34866;48.670;18.260;2022-12-29T01:04:11;20.33;;;10.90;;
49051;SDS011;34866;48.670;18.260;2022-12-29T01:06:38;31.98;;;14.65;;
49051;SDS011;34866;48.670;18.260;2022-12-29T01:09:05;22.50;;;10.57;;
49051;SDS011;34866;48.670;18.260;2022-12-29T01:11:50;23.15;;;12.52;;
49051;SDS011;34866;48.670;18.260;2022-12-29T01:14:16;36.88;;;15.05;;
49051;SDS011;34866;48.670;18.260;2022-12-29T01:16:43;26.80;;;16.20;;
49051;SDS011;34866;48.670;18.260;2022-12-29T01:19:08;26.05;;;13.40;;
49051;SDS011;34866;48.670;18.260;2022-12-29T01:21:34;37.78;;;16.02;;
49051;SDS011;34866;48.670;18.260;2022-12-29T01:24:00;40.22;;;17.23;;
49051;SDS011;34866;48.670;18.260;2022-12-29T01:26:32;36.45;;;13.30;;
49051;SDS011;34866;48.670;18.260;2022-12-29T01:28:58;25.02;;;13.18;;
49051;SDS011;34866;48.670;18.260;2022-12-29T01:31:23;24.70;;;14.35;;
49051;SDS011;34866;48.670;18.260;2022-12-29T01:33:49;33.85;;;15.10;;
49051;SDS011;34866;48.670;18.260;2022-12-29T01:36:15;24.10;;;13.40;;
49051;SDS011;34866;48.670;18.260;2022-12-29T01:38:42;31.98;;;15.80;;
49051;SDS011;34866;48.670;18.260;2022-12-29T01:41:09;37.25;;;15.27;;
49051;SDS011;34866;48.670;18.260;2022-12-29T01:49:08;30.63;;;13.95;;
49051;SDS011;34866;48.670;18.260;2022-12-29T01:51:39;19.13;;;10.50;;
49051;SDS011;34866;48.670;18.260;2022-12-29T01:54:45;21.60;;;11.77;;
49051;SDS011;34866;48.670;18.260;2022-12-29T01:57:20;25.17;;;13.02;;
49051;SDS011;34866;48.670;18.260;2022-12-29T01:59:54;40.60;;;15.30;;
49051;SDS011;34866;48.670;18.260;2022-12-29T02:02:42;30.33;;;13.90;;
49051;SDS011;34866;48.670;18.260;2022-12-29T02:05:36;25.55;;;13.05;;
49051;SDS011;34866;48.670;18.260;2022-12-29T02:08:17;28.67;;;15.23;;
49051;SDS011;34866;48.670;18.260;2022-12-29T02:10:45;31.98;;;12.90;;
49051;SDS011;34866;48.670;18.260;2022-12-29T02:13:14;27.92;;;12.10;;
49051;SDS011;34866;48.670;18.260;2022-12-29T02:15:58;27.27;;;12.35;;
49051;SDS011;34866;48.670;18.260;2022-12-29T02:18:43;13.02;;;7.75;;
49051;SDS011;34866;48.670;18.260;2022-12-29T02:35:05;29.17;;;13.85;;
49051;SDS011;34866;48.670;18.260;2022-12-29T02:48:32;29.40;;;11.07;;
49051;SDS011;34866;48.670;18.260;2022-12-29T02:51:15;25.30;;;12.40;;
49051;SDS011;34866;48.670;18.260;2022-12-29T02:53:47;22.58;;;11.60;;
49051;SDS011;34866;48.670;18.260;2022-12-29T02:56:32;26.80;;;11.45;;
49051;SDS011;34866;48.670;18.260;2022-12-29T02:58:58;20.77;;;11.80;;
49051;SDS011;34866;48.670;18.260;2022-12-29T03:04:39;23.27;;;11.60;;
49051;SDS011;34866;48.670;18.260;2022-12-29T03:07:35;19.97;;;9.37;;
49051;SDS011;34866;48.670;18.260;2022-12-29T03:16:25;22.75;;;10.48;;
49051;SDS011;34866;48.670;18.260;2022-12-29T03:19:19;15.45;;;8.32;;
49051;SDS011;34866;48.670;18.260;2022-12-29T03:21:55;20.38;;;9.77;;
49051;SDS011;34866;48.670;18.260;2022-12-29T03:24:43;18.92;;;11.63;;
49051;SDS011;34866;48.670;18.260;2022-12-29T03:27:13;23.20;;;10.07;;
49051;SDS011;34866;48.670;18.260;2022-12-29T03:29:45;22.13;;;11.25;;
49051;SDS011;34866;48.670;18.260;2022-12-29T03:32:28;23.23;;;11.38;;
49051;SDS011;34866;48.670;18.260;2022-12-29T03:35:11;24.23;;;10.00;;
49051;SDS011;34866;48.670;18.260;2022-12-29T03:37:41;30.52;;;12.50;;
49051;SDS011;34866;48.670;18.260;2022-12-29T03:40:23;23.92;;;10.05;;
49051;SDS011;34866;48.670;18.260;2022-12-29T03:43:11;26.05;;;9.80;;
49051;SDS011;34866;48.670;18.260;2022-12-29T03:45:37;20.05;;;9.43;;
49051;SDS011;34866;48.670;18.260;2022-12-29T03:48:10;16.42;;;10.57;;
49051;SDS011;34866;48.670;18.260;2022-12-29T03:50:36;19.70;;;10.95;;
49051;SDS011;34866;48.670;18.260;2022-12-29T03:53:01;19.95;;;10.55;;
49051;SDS011;34866;48.670;18.260;2022-12-29T03:55:27;15.13;;;8.88;;
49051;SDS011;34866;48.670;18.260;2022-12-29T03:57:53;10.73;;;7.28;;
49051;SDS011;34866;48.670;18.260;2022-12-29T04:00:18;11.98;;;7.10;;
49051;SDS011;34866;48.670;18.260;2022-12-29T04:02:44;15.02;;;7.47;;
49051;SDS011;34866;48.670;18.260;2022-12-29T04:05:09;19.80;;;7.03;;
49051;SDS011;34866;48.670;18.260;2022-12-29T04:07:35;17.20;;;4.70;;
49051;SDS011;34866;48.670;18.260;2022-12-29T04:10:02;10.57;;;4.75;;
49051;SDS011;34866;48.670;18.260;2022-12-29T04:12:28;10.93;;;6.13;;
49051;SDS011;34866;48.670;18.260;2022-12-29T04:14:54;11.15;;;5.03;;
49051;SDS011;34866;48.670;18.260;2022-12-29T04:17:19;9.60;;;4.82;;
49051;SDS011;34866;48.670;18.260;2022-12-29T04:20:06;11.75;;;5.30;;
49051;SDS011;34866;48.670;18.260;2022-12-29T04:23:01;8.13;;;3.80;;
49051;SDS011;34866;48.670;18.260;2022-12-29T04:25:30;10.65;;;5.57;;
49051;SDS011;34866;48.670;18.260;2022-12-29T04:27:56;10.02;;;6.30;;
49051;SDS011;34866;48.670;18.260;2022-12-29T04:30:22;22.27;;;10.70;;
49051;SDS011;34866;48.670;18.260;2022-12-29T04:32:49;14.45;;;7.20;;
49051;SDS011;34866;48.670;18.260;2022-12-29T04:35:15;28.75;;;9.82;;
49051;SDS011;34866;48.670;18.260;2022-12-29T04:37:41;23.35;;;10.38;;
49051;SDS011;34866;48.670;18.260;2022-12-29T04:40:07;21.98;;;10.27;;
49051;SDS011;34866;48.670;18.260;2022-12-29T04:42:33;18.90;;;9.75;;
49051;SDS011;34866;48.670;18.260;2022-12-29T04:44:59;16.95;;;7.72;;
49051;SDS011;34866;48.670;18.260;2022-12-29T04:47:24;16.23;;;8.85;;
49051;SDS011;34866;48.670;18.260;2022-12-29T04:49:51;17.42;;;8.98;;
49051;SDS011;34866;48.670;18.260;2022-12-29T04:52:17;19.20;;;9.35;;
49051;SDS011;34866;48.670;18.260;2022-12-29T04:54:42;18.88;;;9.48;;
49051;SDS011;34866;48.670;18.260;2022-12-29T04:57:08;16.20;;;8.43;;
49051;SDS011;34866;48.670;18.260;2022-12-29T04:59:33;18.63;;;8.70;;
49051;SDS011;34866;48.670;18.260;2022-12-29T05:01:59;16.30;;;8.50;;
49051;SDS011;34866;48.670;18.260;2022-12-29T05:04:26;19.67;;;8.23;;
49051;SDS011;34866;48.670;18.260;2022-12-29T05:06:51;21.88;;;10.18;;
49051;SDS011;34866;48.670;18.260;2022-12-29T05:09:22;19.20;;;9.23;;
49051;SDS011;34866;48.670;18.260;2022-12-29T05:11:49;19.02;;;10.40;;
49051;SDS011;34866;48.670;18.260;2022-12-29T05:14:14;17.30;;;9.75;;
49051;SDS011;34866;48.670;18.260;2022-12-29T05:16:40;21.90;;;11.15;;
49051;SDS011;34866;48.670;18.260;2022-12-29T05:19:06;23.73;;;9.55;;
49051;SDS011;34866;48.670;18.260;2022-12-29T05:21:31;15.95;;;10.05;;
49051;SDS011;34866;48.670;18.260;2022-12-29T05:23:58;17.23;;;9.43;;
49051;SDS011;34866;48.670;18.260;2022-12-29T05:26:24;15.77;;;8.68;;
49051;SDS011;34866;48.670;18.260;2022-12-29T05:28:51;18.35;;;9.88;;
49051;SDS011;34866;48.670;18.260;2022-12-29T05:31:17;20.80;;;10.90;;
49051;SDS011;34866;48.670;18.260;2022-12-29T05:33:42;28.63;;;8.95;;
49051;SDS011;34866;48.670;18.260;2022-12-29T05:36:08;17.83;;;8.90;;
49051;SDS011;34866;48.670;18.260;2022-12-29T05:38:38;30.83;;;9.80;;
49051;SDS011;34866;48.670;18.260;2022-12-29T05:41:04;18.85;;;8.50;;
49051;SDS011;34866;48.670;18.260;2022-12-29T05:43:30;20.05;;;8.80;;
49051;SDS011;34866;48.670;18.260;2022-12-29T05:45:55;19.67;;;10.50;;
49051;SDS011;34866;48.670;18.260;2022-12-29T05:48:22;21.48;;;9.93;;
49051;SDS011;34866;48.670;18.260;2022-12-29T05:50:48;16.48;;;8.75;;
49051;SDS011;34866;48.670;18.260;2022-12-29T05:53:14;22.73;;;11.93;;
49051;SDS011;34866;48.670;18.260;2022-12-29T05:55:40;17.95;;;9.00;;
49051;SDS011;34866;48.670;18.260;2022-12-29T05:58:07;19.63;;;9.82;;
49051;SDS011;34866;48.670;18.260;2022-12-29T06:00:34;22.33;;;9.77;;
49051;SDS011;34866;48.670;18.260;2022-12-29T06:03:00;27.35;;;9.27;;
49051;SDS011;34866;48.670;18.260;2022-12-29T06:05:25;22.70;;;9.25;;
49051;SDS011;34866;48.670;18.260;2022-12-29T06:07:51;19.33;;;6.70;;
49051;SDS011;34866;48.670;18.260;2022-12-29T06:10:17;16.05;;;9.00;;
49051;SDS011;34866;48.670;18.260;2022-12-29T06:12:42;25.27;;;9.02;;
49051;SDS011;34866;48.670;18.260;2022-12-29T06:15:08;20.90;;;9.80;;
49051;SDS011;34866;48.670;18.260;2022-12-29T06:17:34;19.83;;;9.65;;
49051;SDS011;34866;48.670;18.260;2022-12-29T06:20:00;16.20;;;8.38;;
49051;SDS011;34866;48.670;18.260;2022-12-29T06:22:26;19.35;;;9.25;;
49051;SDS011;34866;48.670;18.260;2022-12-29T06:24:51;18.88;;;8.20;;
49051;SDS011;34866;48.670;18.260;2022-12-29T06:27:17;21.77;;;9.13;;
49051;SDS011;34866;48.670;18.260;2022-12-29T06:29:43;29.80;;;11.40;;
49051;SDS011;34866;48.670;18.260;2022-12-29T06:32:09;20.80;;;9.10;;
49051;SDS011;34866;48.670;18.260;2022-12-29T06:34:35;20.65;;;9.77;;
49051;SDS011;34866;48.670;18.260;2022-12-29T06:37:01;19.60;;;9.38;;
49051;SDS011;34866;48.670;18.260;2022-12-29T06:39:29;16.83;;;10.23;;
49051;SDS011;34866;48.670;18.260;2022-12-29T06:41:55;20.58;;;9.75;;
49051;SDS011;34866;48.670;18.260;2022-12-29T06:44:21;19.55;;;9.65;;
49051;SDS011;34866;48.670;18.260;2022-12-29T06:47:09;16.70;;;10.73;;
49051;SDS011;34866;48.670;18.260;2022-12-29T06:49:38;16.15;;;8.20;;
49051;SDS011;34866;48.670;18.260;2022-12-29T06:52:04;21.33;;;11.57;;
49051;SDS011;34866;48.670;18.260;2022-12-29T06:54:30;15.95;;;8.00;;
49051;SDS011;34866;48.670;18.260;2022-12-29T06:56:58;15.50;;;8.68;;
49051;SDS011;34866;48.670;18.260;2022-12-29T06:59:45;24.70;;;11.02;;
49051;SDS011;34866;48.670;18.260;2022-12-29T07:02:10;23.90;;;11.10;;
49051;SDS011;34866;48.670;18.260;2022-12-29T07:04:36;19.27;;;8.18;;
49051;SDS011;34866;48.670;18.260;2022-12-29T07:07:02;22.00;;;10.90;;
49051;SDS011;34866;48.670;18.260;2022-12-29T07:09:28;19.30;;;8.82;;
49051;SDS011;34866;48.670;18.260;2022-12-29T07:11:54;26.48;;;8.27;;
49051;SDS011;34866;48.670;18.260;2022-12-29T07:14:20;20.23;;;8.98;;
49051;SDS011;34866;48.670;18.260;2022-12-29T07:16:47;17.23;;;8.07;;
49051;SDS011;34866;48.670;18.260;2022-12-29T07:19:13;20.65;;;10.48;;
49051;SDS011;34866;48.670;18.260;2022-12-29T07:21:41;14.43;;;8.10;;
49051;SDS011;34866;48.670;18.260;2022-12-29T07:24:07;17.77;;;8.82;;
49051;SDS011;34866;48.670;18.260;2022-12-29T07:26:39;21.05;;;11.02;;
49051;SDS011;34866;48.670;18.260;2022-12-29T07:29:14;17.95;;;8.57;;
49051;SDS011;34866;48.670;18.260;2022-12-29T07:31:45;21.10;;;8.73;;
49051;SDS011;34866;48.670;18.260;2022-12-29T07:34:11;19.33;;;7.93;;
49051;SDS011;34866;48.670;18.260;2022-12-29T07:36:38;17.92;;;8.38;;
49051;SDS011;34866;48.670;18.260;2022-12-29T07:39:28;16.83;;;9.15;;
49051;SDS011;34866;48.670;18.260;2022-12-29T07:41:57;21.33;;;10.13;;
49051;SDS011;34866;48.670;18.260;2022-12-29T07:44:24;18.02;;;9.80;;
49051;SDS011;34866;48.670;18.260;2022-12-29T07:47:00;15.35;;;7.90;;
49051;SDS011;34866;48.670;18.260;2022-12-29T07:49:33;15.80;;;8.82;;
49051;SDS011;34866;48.670;18.260;2022-12-29T07:52:00;14.38;;;7.00;;
49051;SDS011;34866;48.670;18.260;2022-12-29T07:54:26;19.67;;;10.43;;
49051;SDS011;34866;48.670;18.260;2022-12-29T07:56:52;18.88;;;8.48;;
49051;SDS011;34866;48.670;18.260;2022-12-29T07:59:19;18.88;;;8.05;;
49051;SDS011;34866;48.670;18.260;2022-12-29T08:01:58;19.40;;;10.07;;
49051;SDS011;34866;48.670;18.260;2022-12-29T08:04:24;20.63;;;9.30;;
49051;SDS011;34866;48.670;18.260;2022-12-29T08:06:52;34.97;;;11.95;;
49051;SDS011;34866;48.670;18.260;2022-12-29T08:09:19;18.73;;;10.43;;
49051;SDS011;34866;48.670;18.260;2022-12-29T08:11:44;16.85;;;9.25;;
49051;SDS011;34866;48.670;18.260;2022-12-29T08:14:11;19.40;;;8.90;;
49051;SDS011;34866;48.670;18.260;2022-12-29T08:16:40;15.15;;;8.95;;
49051;SDS011;34866;48.670;18.260;2022-12-29T08:19:06;17.23;;;9.57;;
49051;SDS011;34866;48.670;18.260;2022-12-29T08:21:52;14.10;;;7.18;;
49051;SDS011;34866;48.670;18.260;2022-12-29T08:24:21;12.73;;;7.75;;
49051;SDS011;34866;48.670;18.260;2022-12-29T08:27:16;12.15;;;7.30;;
49051;SDS011;34866;48.670;18.260;2022-12-29T08:29:47;19.20;;;7.85;;
49051;SDS011;34866;48.670;18.260;2022-12-29T08:32:15;15.63;;;9.13;;
49051;SDS011;34866;48.670;18.260;2022-12-29T08:34:52;18.65;;;9.25;;
49051;SDS011;34866;48.670;18.260;2022-12-29T08:39:48;14.02;;;8.00;;
49051;SDS011;34866;48.670;18.260;2022-12-29T08:42:17;12.75;;;6.40;;
49051;SDS011;34866;48.670;18.260;2022-12-29T08:45:03;21.63;;;8.15;;
49051;SDS011;34866;48.670;18.260;2022-12-29T08:47:34;27.02;;;9.77;;
49051;SDS011;34866;48.670;18.260;2022-12-29T08:50:09;18.17;;;9.32;;
49051;SDS011;34866;48.670;18.260;2022-12-29T08:52:38;28.27;;;11.50;;
49051;SDS011;34866;48.670;18.260;2022-12-29T08:55:47;20.48;;;10.60;;
49051;SDS011;34866;48.670;18.260;2022-12-29T09:01:49;20.55;;;9.55;;
49051;SDS011;34866;48.670;18.260;2022-12-29T09:05:30;20.08;;;8.52;;
49051;SDS011;34866;48.670;18.260;2022-12-29T09:08:11;15.75;;;7.35;;
49051;SDS011;34866;48.670;18.260;2022-12-29T09:10:42;15.65;;;9.27;;
49051;SDS011;34866;48.670;18.260;2022-12-29T09:13:20;14.02;;;8.30;;
49051;SDS011;34866;48.670;18.260;2022-12-29T09:16:10;20.83;;;9.63;;
49051;SDS011;34866;48.670;18.260;2022-12-29T09:18:39;15.93;;;8.52;;
49051;SDS011;34866;48.670;18.260;2022-12-29T09:21:11;19.48;;;9.13;;
49051;SDS011;34866;48.670;18.260;2022-12-29T09:23:39;16.17;;;9.00;;
49051;SDS011;34866;48.670;18.260;2022-12-29T09:26:08;16.88;;;7.95;;
49051;SDS011;34866;48.670;18.260;2022-12-29T09:28:54;20.42;;;9.35;;
49051;SDS011;34866;48.670;18.260;2022-12-29T09:31:21;11.90;;;7.50;;
49051;SDS011;34866;48.670;18.260;2022-12-29T09:33:48;19.00;;;7.55;;
49051;SDS011;34866;48.670;18.260;2022-12-29T09:36:34;16.73;;;7.28;;
49051;SDS011;34866;48.670;18.260;2022-12-29T09:39:03;14.77;;;6.75;;
49051;SDS011;34866;48.670;18.260;2022-12-29T09:41:32;16.83;;;7.38;;
49051;SDS011;34866;48.670;18.260;2022-12-29T09:47:17;19.77;;;9.98;;
49051;SDS011;34866;48.670;18.260;2022-12-29T09:52:24;18.92;;;9.02;;
49051;SDS011;34866;48.670;18.260;2022-12-29T09:55:13;22.17;;;10.15;;
49051;SDS011;34866;48.670;18.260;2022-12-29T10:00:18;23.95;;;9.55;;
49051;SDS011;34866;48.670;18.260;2022-12-29T10:12:03;25.30;;;9.00;;
49051;SDS011;34866;48.670;18.260;2022-12-29T10:21:18;19.83;;;8.95;;
49051;SDS011;34866;48.670;18.260;2022-12-29T10:24:06;16.60;;;8.20;;
49051;SDS011;34866;48.670;18.260;2022-12-29T10:26:40;18.55;;;9.57;;
49051;SDS011;34866;48.670;18.260;2022-12-29T10:34:19;19.50;;;9.07;;
49051;SDS011;34866;48.670;18.260;2022-12-29T10:36:54;22.53;;;8.00;;
49051;SDS011;34866;48.670;18.260;2022-12-29T10:39:51;16.33;;;8.15;;
49051;SDS011;34866;48.670;18.260;2022-12-29T10:42:28;18.38;;;8.52;;
49051;SDS011;34866;48.670;18.260;2022-12-29T10:45:13;14.57;;;7.30;;
49051;SDS011;34866;48.670;18.260;2022-12-29T10:50:31;28.65;;;8.55;;
49051;SDS011;34866;48.670;18.260;2022-12-29T10:52:58;16.38;;;7.72;;
49051;SDS011;34866;48.670;18.260;2022-12-29T10:55:27;15.80;;;7.55;;
49051;SDS011;34866;48.670;18.260;2022-12-29T10:57:59;15.45;;;8.05;;
49051;SDS011;34866;48.670;18.260;2022-12-29T11:00:30;14.70;;;6.85;;
49051;SDS011;34866;48.670;18.260;2022-12-29T11:05:46;17.08;;;6.65;;
49051;SDS011;34866;48.670;18.260;2022-12-29T11:08:33;17.95;;;6.95;;
49051;SDS011;34866;48.670;18.260;2022-12-29T11:11:02;15.48;;;6.35;;
49051;SDS011;34866;48.670;18.260;2022-12-29T11:13:31;12.38;;;6.22;;
49051;SDS011;34866;48.670;18.260;2022-12-29T11:16:00;13.45;;;6.40;;
49051;SDS011;34866;48.670;18.260;2022-12-29T11:21:04;13.43;;;6.38;;
49051;SDS011;34866;48.670;18.260;2022-12-29T11:23:54;23.67;;;9.10;;
49051;SDS011;34866;48.670;18.260;2022-12-29T11:26:23;15.20;;;7.90;;
49051;SDS011;34866;48.670;18.260;2022-12-29T11:31:58;17.65;;;9.02;;
49051;SDS011;34866;48.670;18.260;2022-12-29T11:37:02;12.35;;;6.57;;
49051;SDS011;34866;48.670;18.260;2022-12-29T11:42:15;14.15;;;6.55;;
49051;SDS011;34866;48.670;18.260;2022-12-29T11:44:46;16.92;;;7.13;;
49051;SDS011;34866;48.670;18.260;2022-12-29T11:47:35;16.60;;;7.03;;
49051;SDS011;34866;48.670;18.260;2022-12-29T11:50:02;16.10;;;7.43;;
49051;SDS011;34866;48.670;18.260;2022-12-29T11:52:32;17.88;;;9.18;;
49051;SDS011;34866;48.670;18.260;2022-12-29T11:55:03;19.60;;;8.10;;
49051;SDS011;34866;48.670;18.260;2022-12-29T11:57:33;15.73;;;7.82;;
49051;SDS011;34866;48.670;18.260;2022-12-29T12:00:02;21.20;;;9.10;;
49051;SDS011;34866;48.670;18.260;2022-12-29T12:02:44;18.00;;;7.65;;
49051;SDS011;34866;48.670;18.260;2022-12-29T12:05:41;15.43;;;8.00;;
49051;SDS011;34866;48.670;18.260;2022-12-29T12:08:14;19.00;;;8.60;;
49051;SDS011;34866;48.670;18.260;2022-12-29T12:10:58;16.98;;;8.27;;
49051;SDS011;34866;48.670;18.260;2022-12-29T12:13:29;18.27;;;8.00;;
49051;SDS011;34866;48.670;18.260;2022-12-29T12:16:24;15.60;;;7.13;;
49051;SDS011;34866;48.670;18.260;2022-12-29T12:19:20;18.42;;;7.70;;
49051;SDS011;34866;48.670;18.260;2022-12-29T12:22:00;13.35;;;7.00;;
49051;SDS011;34866;48.670;18.260;2022-12-29T12:24:56;23.02;;;10.00;;
49051;SDS011;34866;48.670;18.260;2022-12-29T12:30:38;18.50;;;8.15;;
49051;SDS011;34866;48.670;18.260;2022-12-29T12:33:18;18.60;;;8.07;;
49051;SDS011;34866;48.670;18.260;2022-12-29T12:44:00;15.77;;;7.50;;
49051;SDS011;34866;48.670;18.260;2022-12-29T12:59:04;15.40;;;6.70;;
49051;SDS011;34866;48.670;18.260;2022-12-29T13:01:47;14.43;;;7.32;;
49051;SDS011;34866;48.670;18.260;2022-12-29T13:07:18;13.95;;;7.03;;
49051;SDS011;34866;48.670;18.260;2022-12-29T13:13:10;13.02;;;6.68;;
49051;SDS011;34866;48.670;18.260;2022-12-29T13:19:10;13.15;;;7.00;;
49051;SDS011;34866;48.670;18.260;2022-12-29T13:30:10;14.57;;;6.47;;
49051;SDS011;34866;48.670;18.260;2022-12-29T13:36:00;13.43;;;6.95;;
49051;SDS011;34866;48.670;18.260;2022-12-29T13:38:32;25.92;;;9.02;;
49051;SDS011;34866;48.670;18.260;2022-12-29T13:41:13;16.13;;;8.07;;
49051;SDS011;34866;48.670;18.260;2022-12-29T13:43:43;14.55;;;7.68;;
49051;SDS011;34866;48.670;18.260;2022-12-29T13:46:16;16.08;;;7.80;;
49051;SDS011;34866;48.670;18.260;2022-12-29T13:48:53;12.65;;;7.10;;
49051;SDS011;34866;48.670;18.260;2022-12-29T13:51:23;12.68;;;7.38;;
49051;SDS011;34866;48.670;18.260;2022-12-29T13:56:50;17.70;;;7.30;;
49051;SDS011;34866;48.670;18.260;2022-12-29T13:59:37;15.07;;;7.30;;
49051;SDS011;34866;48.670;18.260;2022-12-29T14:05:01;17.67;;;7.90;;
49051;SDS011;34866;48.670;18.260;2022-12-29T14:07:35;15.40;;;7.53;;
49051;SDS011;34866;48.670;18.260;2022-12-29T14:10:02;14.35;;;7.72;;
49051;SDS011;34866;48.670;18.260;2022-12-29T14:15:21;15.27;;;7.10;;
49051;SDS011;34866;48.670;18.260;2022-12-29T14:20:28;19.52;;;8.93;;
49051;SDS011;34866;48.670;18.260;2022-12-29T14:23:02;24.08;;;11.43;;
49051;SDS011;34866;48.670;18.260;2022-12-29T14:28:41;20.75;;;11.20;;
49051;SDS011;34866;48.670;18.260;2022-12-29T14:36:39;18.17;;;7.18;;
49051;SDS011;34866;48.670;18.260;2022-12-29T14:39:28;15.98;;;7.07;;
49051;SDS011;34866;48.670;18.260;2022-12-29T14:47:36;42.92;;;17.95;;
49051;SDS011;34866;48.670;18.260;2022-12-29T14:55:30;21.63;;;9.68;;
49051;SDS011;34866;48.670;18.260;2022-12-29T14:58:32;23.60;;;10.10;;
49051;SDS011;34866;48.670;18.260;2022-12-29T15:01:17;25.75;;;12.93;;
49051;SDS011;34866;48.670;18.260;2022-12-29T15:03:48;25.77;;;12.43;;
49051;SDS011;34866;48.670;18.260;2022-12-29T15:06:18;28.10;;;11.50;;
49051;SDS011;34866;48.670;18.260;2022-12-29T15:08:56;34.97;;;15.65;;
49051;SDS011;34866;48.670;18.260;2022-12-29T15:11:44;31.00;;;13.40;;
49051;SDS011;34866;48.670;18.260;2022-12-29T15:17:33;37.45;;;15.30;;
49051;SDS011;34866;48.670;18.260;2022-12-29T15:20:13;32.53;;;13.23;;
49051;SDS011;34866;48.670;18.260;2022-12-29T15:23:08;34.78;;;16.65;;
49051;SDS011;34866;48.670;18.260;2022-12-29T15:28:51;39.42;;;20.08;;
49051;SDS011;34866;48.670;18.260;2022-12-29T15:31:23;42.80;;;20.27;;
49051;SDS011;34866;48.670;18.260;2022-12-29T15:34:08;38.97;;;19.42;;
49051;SDS011;34866;48.670;18.260;2022-12-29T15:36:44;51.88;;;25.00;;
49051;SDS011;34866;48.670;18.260;2022-12-29T15:45:11;38.13;;;19.50;;
49051;SDS011;34866;48.670;18.260;2022-12-29T15:47:41;42.05;;;20.33;;
49051;SDS011;34866;48.670;18.260;2022-12-29T15:50:31;32.22;;;14.68;;
49051;SDS011;34866;48.670;18.260;2022-12-29T15:53:02;29.25;;;13.82;;
49051;SDS011;34866;48.670;18.260;2022-12-29T15:55:44;27.05;;;13.32;;
49051;SDS011;34866;48.670;18.260;2022-12-29T15:58:23;30.20;;;12.90;;
49051;SDS011;34866;48.670;18.260;2022-12-29T16:00:53;30.25;;;13.52;;
49051;SDS011;34866;48.670;18.260;2022-12-29T16:03:24;26.13;;;11.43;;
49051;SDS011;34866;48.670;18.260;2022-12-29T16:08:59;44.22;;;13.27;;
49051;SDS011;34866;48.670;18.260;2022-12-29T16:11:43;25.40;;;13.18;;
49051;SDS011;34866;48.670;18.260;2022-12-29T16:14:22;28.08;;;13.48;;
49051;SDS011;34866;48.670;18.260;2022-12-29T16:17:09;29.48;;;14.30;;
49051;SDS011;34866;48.670;18.260;2022-12-29T16:22:56;33.17;;;17.00;;
49051;SDS011;34866;48.670;18.260;2022-12-29T16:25:25;35.22;;;15.80;;
49051;SDS011;34866;48.670;18.260;2022-12-29T16:28:14;36.55;;;15.95;;
49051;SDS011;34866;48.670;18.260;2022-12-29T16:30:45;28.23;;;15.07;;
49051;SDS011;34866;48.670;18.260;2022-12-29T16:36:31;26.73;;;13.75;;
49051;SDS011;34866;48.670;18.260;2022-12-29T16:39:11;32.47;;;13.52;;
49051;SDS011;34866;48.670;18.260;2022-12-29T16:50:45;25.48;;;11.57;;
49051;SDS011;34866;48.670;18.260;2022-12-29T16:53:28;23.15;;;11.63;;
49051;SDS011;34866;48.670;18.260;2022-12-29T16:58:50;23.52;;;11.27;;
49051;SDS011;34866;48.670;18.260;2022-12-29T17:01:23;21.60;;;9.50;;
49051;SDS011;34866;48.670;18.260;2022-12-29T17:04:05;21.52;;;12.77;;
49051;SDS011;34866;48.670;18.260;2022-12-29T17:06:42;27.42;;;14.07;;
49051;SDS011;34866;48.670;18.260;2022-12-29T17:09:18;30.38;;;13.88;;
49051;SDS011;34866;48.670;18.260;2022-12-29T17:12:03;24.30;;;12.05;;
49051;SDS011;34866;48.670;18.260;2022-12-29T17:14:34;26.80;;;13.15;;
49051;SDS011;34866;48.670;18.260;2022-12-29T17:23:00;29.48;;;13.68;;
49051;SDS011;34866;48.670;18.260;2022-12-29T17:28:32;21.70;;;11.93;;
49051;SDS011;34866;48.670;18.260;2022-12-29T17:31:02;24.85;;;13.50;;
49051;SDS011;34866;48.670;18.260;2022-12-29T17:33:36;26.77;;;12.73;;
49051;SDS011;34866;48.670;18.260;2022-12-29T17:36:19;25.37;;;15.13;;
49051;SDS011;34866;48.670;18.260;2022-12-29T17:38:48;28.40;;;15.05;;
49051;SDS011;34866;48.670;18.260;2022-12-29T17:41:15;30.25;;;16.15;;
49051;SDS011;34866;48.670;18.260;2022-12-29T17:43:47;31.83;;;17.83;;
49051;SDS011;34866;48.670;18.260;2022-12-29T17:46:19;34.40;;;16.55;;
49051;SDS011;34866;48.670;18.260;2022-12-29T17:48:50;41.83;;;16.92;;
49051;SDS011;34866;48.670;18.260;2022-12-29T17:54:07;33.70;;;14.32;;
49051;SDS011;34866;48.670;18.260;2022-12-29T17:56:52;39.55;;;18.50;;
49051;SDS011;34866;48.670;18.260;2022-12-29T17:59:22;41.90;;;19.50;;
49051;SDS011;34866;48.670;18.260;2022-12-29T18:01:48;48.47;;;19.85;;
49051;SDS011;34866;48.670;18.260;2022-12-29T18:04:16;41.33;;;16.80;;
49051;SDS011;34866;48.670;18.260;2022-12-29T18:06:46;32.90;;;16.15;;
49051;SDS011;34866;48.670;18.260;2022-12-29T18:09:18;28.75;;;14.40;;
49051;SDS011;34866;48.670;18.260;2022-12-29T18:11:48;31.20;;;14.63;;
49051;SDS011;34866;48.670;18.260;2022-12-29T18:14:14;29.98;;;14.18;;
49051;SDS011;34866;48.670;18.260;2022-12-29T18:16:42;31.80;;;13.30;;
49051;SDS011;34866;48.670;18.260;2022-12-29T18:19:14;38.25;;;14.88;;
49051;SDS011;34866;48.670;18.260;2022-12-29T18:21:41;24.85;;;12.43;;
49051;SDS011;34866;48.670;18.260;2022-12-29T18:24:23;26.48;;;13.55;;